createdAt,value
2023-03-06T00:01:28.286Z,1.60
2023-03-06T00:03:55.266Z,1.70
2023-03-06T00:06:21.943Z,1.70
2023-03-06T00:08:48.550Z,1.70
2023-03-06T00:11:15.575Z,1.70
2023-03-06T00:13:42.210Z,1.60
2023-03-06T00:16:08.927Z,1.60
2023-03-06T00:18:35.615Z,1.60
2023-03-06T00:21:02.232Z,1.60
2023-03-06T00:23:28.892Z,1.70
2023-03-06T00:25:55.537Z,1.70
2023-03-06T00:28:22.294Z,1.70
2023-03-06T00:30:48.979Z,1.70
2023-03-06T00:33:15.664Z,1.70
2023-03-06T00:35:42.380Z,1.70
2023-03-06T00:38:11.082Z,1.70
2023-03-06T00:40:37.707Z,1.60
2023-03-06T00:43:04.339Z,1.60
2023-03-06T00:45:31.028Z,1.60
2023-03-06T00:47:57.735Z,1.60
2023-03-06T00:50:24.346Z,1.70
2023-03-06T00:52:50.995Z,1.50
2023-03-06T00:55:17.543Z,3.00
2023-03-06T00:57:44.225Z,1.60
2023-03-06T01:00:12.234Z,1.60
2023-03-06T01:02:38.972Z,1.50
2023-03-06T01:05:06.290Z,1.50
2023-03-06T01:07:37.025Z,1.50
2023-03-06T01:10:04.711Z,1.50
2023-03-06T01:12:31.343Z,1.50
2023-03-06T01:14:57.977Z,1.50
2023-03-06T01:17:24.628Z,2.30
2023-03-06T01:19:51.186Z,1.50
2023-03-06T01:22:17.812Z,1.50
2023-03-06T01:24:44.487Z,1.50
2023-03-06T01:27:11.176Z,1.50
2023-03-06T01:29:37.764Z,1.50
2023-03-06T01:32:04.587Z,1.50
2023-03-06T01:34:31.278Z,1.40
2023-03-06T01:36:57.952Z,1.50
2023-03-06T01:39:25.036Z,4.40
2023-03-06T01:41:51.775Z,1.50
2023-03-06T01:44:18.398Z,1.50
2023-03-06T01:46:45.802Z,1.50
2023-03-06T01:49:18.427Z,1.50
2023-03-06T01:51:51.158Z,1.50
2023-03-06T01:54:21.266Z,1.50
2023-03-06T01:56:49.290Z,1.50
2023-03-06T01:59:16.417Z,1.50
2023-03-06T02:01:43.523Z,1.50
2023-03-06T02:04:10.776Z,3.60
2023-03-06T02:06:38.756Z,1.50
2023-03-06T02:09:05.701Z,1.50
2023-03-06T02:11:32.639Z,2.10
2023-03-06T02:13:59.323Z,1.50
2023-03-06T02:16:27.550Z,1.50
2023-03-06T02:18:54.315Z,1.50
2023-03-06T02:21:24.309Z,1.70
2023-03-06T02:23:53.710Z,1.50
2023-03-06T02:26:20.965Z,1.50
2023-03-06T02:28:47.630Z,1.40
2023-03-06T02:31:22.714Z,1.40
2023-03-06T02:34:02.594Z,1.30
2023-03-06T02:36:29.754Z,1.40
2023-03-06T02:38:56.651Z,1.40
2023-03-06T02:41:23.272Z,3.50
2023-03-06T02:43:50.479Z,1.50
2023-03-06T02:46:17.234Z,1.50
2023-03-06T02:48:43.958Z,1.40
2023-03-06T02:51:10.680Z,1.40
2023-03-06T02:53:37.380Z,1.40
2023-03-06T02:56:04.020Z,1.40
2023-03-06T02:58:30.705Z,1.30
2023-03-06T03:00:57.343Z,1.40
2023-03-06T03:03:24.017Z,1.40
2023-03-06T03:05:50.767Z,1.40
2023-03-06T03:08:18.022Z,1.30
2023-03-06T03:10:44.682Z,1.40
2023-03-06T03:13:11.339Z,1.40
2023-03-06T03:15:37.974Z,1.30
2023-03-06T03:18:04.733Z,1.30
2023-03-06T03:20:31.372Z,1.40
2023-03-06T03:22:58.018Z,1.20
2023-03-06T03:25:25.439Z,1.30
2023-03-06T03:27:52.130Z,1.20
2023-03-06T03:30:18.851Z,1.30
2023-03-06T03:32:45.498Z,1.20
2023-03-06T03:35:12.164Z,1.20
2023-03-06T03:37:39.075Z,1.20
2023-03-06T03:40:07.173Z,1.20
2023-03-06T03:42:33.911Z,1.20
2023-03-06T03:45:00.508Z,1.30
2023-03-06T03:47:27.178Z,1.30
2023-03-06T03:49:53.759Z,1.30
2023-03-06T03:52:20.364Z,1.30
2023-03-06T03:54:47.005Z,3.70
2023-03-06T03:57:13.639Z,1.20
2023-03-06T03:59:40.291Z,4.20
2023-03-06T04:02:06.981Z,1.30
2023-03-06T04:04:33.783Z,1.20
2023-03-06T04:07:00.833Z,1.20
2023-03-06T04:09:27.628Z,1.30
2023-03-06T04:11:54.259Z,1.30
2023-03-06T04:14:20.971Z,1.20
2023-03-06T04:16:47.694Z,1.20
2023-03-06T04:19:14.328Z,1.30
2023-03-06T04:21:40.927Z,1.30
2023-03-06T04:24:07.708Z,1.30
2023-03-06T04:26:34.385Z,1.30
2023-03-06T04:29:01.350Z,1.30
2023-03-06T04:31:28.049Z,1.30
2023-03-06T04:33:54.672Z,1.30
2023-03-06T04:36:25.571Z,1.30
2023-03-06T04:38:52.219Z,1.30
2023-03-06T04:41:18.899Z,1.30
2023-03-06T04:43:46.276Z,1.30
2023-03-06T04:46:12.979Z,1.20
2023-03-06T04:48:39.585Z,1.20
2023-03-06T04:51:06.209Z,1.20
2023-03-06T04:53:32.891Z,1.20
2023-03-06T04:55:59.545Z,1.20
2023-03-06T04:58:26.510Z,1.30
2023-03-06T05:00:53.133Z,1.20
2023-03-06T05:03:19.784Z,1.20
2023-03-06T05:05:46.435Z,1.20
2023-03-06T05:08:15.173Z,1.30
2023-03-06T05:10:42.703Z,1.20
2023-03-06T05:13:09.497Z,1.30
2023-03-06T05:15:36.436Z,1.20
2023-03-06T05:18:03.125Z,1.30
2023-03-06T05:20:29.707Z,4.00
2023-03-06T05:22:56.351Z,1.20
2023-03-06T05:25:22.969Z,4.20
2023-03-06T05:27:49.632Z,1.20
2023-03-06T05:30:16.588Z,1.20
2023-03-06T05:32:43.386Z,1.20
2023-03-06T05:35:19.406Z,1.20
2023-03-06T05:37:46.646Z,1.20
2023-03-06T05:40:13.931Z,1.20
2023-03-06T05:42:40.731Z,1.20
2023-03-06T05:45:07.850Z,1.30
2023-03-06T05:47:34.518Z,1.20
2023-03-06T05:50:01.199Z,1.20
2023-03-06T05:52:27.796Z,1.20
2023-03-06T05:54:54.643Z,1.20
2023-03-06T05:57:21.910Z,1.30
2023-03-06T05:59:49.407Z,1.30
2023-03-06T06:02:16.795Z,1.30
2023-03-06T06:04:43.505Z,1.30
2023-03-06T06:07:12.554Z,1.30
2023-03-06T06:09:39.216Z,1.30
2023-03-06T06:12:06.037Z,1.30
2023-03-06T06:14:33.786Z,1.30
2023-03-06T06:17:00.330Z,1.30
2023-03-06T06:19:30.954Z,1.30
2023-03-06T06:21:57.677Z,1.20
2023-03-06T06:24:25.573Z,1.30
2023-03-06T06:26:53.011Z,1.20
2023-03-06T06:29:19.617Z,1.30
2023-03-06T06:31:46.301Z,1.30
2023-03-06T06:34:13.262Z,1.30
2023-03-06T06:36:40.568Z,1.30
2023-03-06T06:39:07.772Z,1.20
2023-03-06T06:41:54.960Z,1.30
2023-03-06T06:44:21.762Z,1.40
2023-03-06T06:47:21.279Z,1.40
2023-03-06T06:49:36.945Z,1.40
2023-03-06T06:52:04.360Z,1.40
2023-03-06T06:54:30.923Z,1.40
2023-03-06T06:56:57.592Z,1.50
2023-03-06T06:59:24.233Z,1.50
2023-03-06T07:01:51.580Z,1.50
2023-03-06T07:04:19.165Z,1.50
2023-03-06T07:06:45.835Z,1.60
2023-03-06T07:09:12.450Z,1.70
2023-03-06T07:11:39.739Z,1.60
2023-03-06T07:14:06.367Z,1.70
2023-03-06T07:16:33.064Z,1.70
2023-03-06T07:18:59.686Z,1.70
2023-03-06T07:21:26.319Z,1.70
2023-03-06T07:23:54.299Z,1.80
2023-03-06T07:26:20.969Z,1.80
2023-03-06T07:28:52.719Z,1.80
2023-03-06T07:31:22.048Z,1.90
2023-03-06T07:33:49.323Z,1.90
2023-03-06T07:36:16.031Z,2.00
2023-03-06T07:38:42.650Z,2.10
2023-03-06T07:41:13.356Z,2.10
2023-03-06T07:43:41.099Z,2.10
2023-03-06T07:46:08.134Z,2.20
2023-03-06T07:48:35.141Z,2.90
2023-03-06T07:51:03.191Z,2.30
2023-03-06T07:53:31.862Z,2.40
2023-03-06T07:55:58.606Z,2.50
2023-03-06T07:58:25.233Z,2.60
2023-03-06T08:00:51.926Z,2.50
2023-03-06T08:03:18.687Z,2.70
2023-03-06T08:05:45.554Z,2.60
2023-03-06T08:08:12.220Z,2.70
2023-03-06T08:10:38.831Z,3.50
2023-03-06T08:13:05.523Z,2.90
2023-03-06T08:15:32.265Z,3.30
2023-03-06T08:17:58.844Z,3.10
2023-03-06T08:20:25.887Z,3.20
2023-03-06T08:22:52.604Z,3.30
2023-03-06T08:25:19.431Z,3.30
2023-03-06T08:27:47.397Z,3.30
2023-03-06T08:30:14.188Z,3.40
2023-03-06T08:32:40.937Z,3.40
2023-03-06T08:35:07.907Z,3.50
2023-03-06T08:37:34.662Z,3.50
2023-03-06T08:40:04.492Z,3.60
2023-03-06T08:42:31.738Z,3.70
2023-03-06T08:44:58.585Z,3.70
2023-03-06T08:47:25.351Z,3.70
2023-03-06T08:49:52.072Z,3.80
2023-03-06T08:52:19.844Z,3.90
2023-03-06T08:54:46.721Z,3.90
2023-03-06T08:57:13.389Z,4.10
2023-03-06T08:59:40.160Z,4.00
2023-03-06T09:02:07.668Z,4.10
2023-03-06T09:04:34.575Z,4.20
2023-03-06T09:07:01.589Z,4.20
2023-03-06T09:09:28.277Z,4.40
2023-03-06T09:11:55.105Z,1.70
2023-03-06T09:14:21.811Z,4.70
2023-03-06T09:16:48.605Z,4.70
2023-03-06T09:19:15.291Z,4.80
2023-03-06T09:21:41.965Z,4.90
2023-03-06T09:24:08.790Z,4.90
2023-03-06T09:26:45.422Z,4.80
2023-03-06T09:29:15.472Z,4.90
2023-03-06T09:31:42.156Z,5.00
2023-03-06T09:34:09.465Z,5.10
2023-03-06T09:36:53.407Z,5.10
2023-03-06T09:39:22.205Z,5.20
2023-03-06T09:41:49.628Z,5.10
2023-03-06T09:44:18.446Z,5.10
2023-03-06T09:46:54.285Z,5.20
2023-03-06T09:49:25.450Z,5.00
2023-03-06T09:51:55.151Z,4.90
2023-03-06T09:54:26.911Z,4.70
2023-03-06T09:56:53.755Z,4.60
2023-03-06T09:59:21.758Z,4.60
2023-03-06T10:01:56.576Z,5.10
2023-03-06T10:04:23.229Z,4.50
2023-03-06T10:06:50.972Z,4.50
2023-03-06T10:09:36.451Z,4.50
2023-03-06T10:12:19.261Z,4.40
2023-03-06T10:14:49.115Z,4.40
2023-03-06T10:17:17.763Z,4.30
2023-03-06T10:19:44.952Z,4.30
2023-03-06T10:22:30.621Z,4.20
2023-03-06T10:25:12.388Z,4.20
2023-03-06T10:27:45.369Z,4.10
2023-03-06T10:30:24.214Z,4.60
2023-03-06T10:32:57.544Z,4.30
2023-03-06T10:35:56.944Z,4.10
2023-03-06T10:38:23.791Z,4.00
2023-03-06T10:41:05.413Z,4.00
2023-03-06T10:43:34.892Z,4.00
2023-03-06T10:46:02.989Z,4.00
2023-03-06T10:48:30.841Z,4.00
2023-03-06T10:51:19.460Z,4.10
2023-03-06T10:53:58.361Z,4.10
2023-03-06T10:56:35.770Z,4.00
2023-03-06T10:59:06.859Z,4.00
2023-03-06T11:01:33.964Z,4.10
2023-03-06T11:04:21.172Z,4.20
2023-03-06T11:06:48.137Z,4.20
2023-03-06T11:09:22.804Z,6.20
2023-03-06T11:11:50.156Z,4.20
2023-03-06T11:14:18.195Z,4.20
2023-03-06T11:16:55.337Z,4.20
2023-03-06T11:19:29.238Z,4.20
2023-03-06T11:22:00.710Z,4.30
2023-03-06T11:24:30.941Z,4.40
2023-03-06T11:26:59.684Z,4.50
2023-03-06T11:29:42.469Z,4.50
2023-03-06T11:32:12.378Z,4.60
2023-03-06T11:34:53.219Z,4.70
2023-03-06T11:37:28.933Z,4.40
2023-03-06T11:40:10.799Z,4.80
2023-03-06T11:42:49.416Z,4.90
2023-03-06T11:45:22.167Z,4.90
2023-03-06T11:47:57.932Z,7.10
2023-03-06T11:50:31.508Z,4.90
2023-03-06T11:52:59.802Z,5.00
2023-03-06T11:55:40.407Z,5.20
2023-03-06T11:58:23.521Z,5.20
2023-03-06T12:00:50.189Z,5.30
2023-03-06T12:03:29.178Z,5.30
2023-03-06T12:06:10.006Z,5.30
2023-03-06T12:08:42.929Z,5.50
2023-03-06T12:13:58.975Z,5.70
2023-03-06T12:16:36.205Z,3.70
2023-03-06T12:19:23.200Z,5.70
2023-03-06T12:21:49.934Z,9.40
2023-03-06T12:24:35.491Z,9.40
2023-03-06T12:27:09.211Z,5.80
2023-03-06T12:29:35.944Z,5.80
2023-03-06T12:32:21.643Z,9.10
2023-03-06T12:34:59.928Z,5.80
2023-03-06T12:37:35.746Z,3.90
2023-03-06T12:40:07.428Z,9.00
2023-03-06T12:42:43.701Z,5.80
2023-03-06T12:45:25.694Z,8.60
2023-03-06T12:47:54.582Z,5.60
2023-03-06T12:50:27.452Z,8.80
2023-03-06T12:52:55.369Z,5.60
2023-03-06T12:55:25.533Z,8.20
2023-03-06T12:57:53.109Z,8.50
2023-03-06T13:00:35.037Z,5.60
2023-03-06T13:03:14.979Z,5.50
2023-03-06T13:05:41.585Z,5.50
2023-03-06T13:08:08.225Z,5.40
2023-03-06T13:10:35.653Z,5.40
2023-03-06T13:13:20.801Z,5.30
2023-03-06T13:16:05.080Z,5.30
2023-03-06T13:18:46.498Z,5.30
2023-03-06T13:21:39.522Z,5.40
2023-03-06T13:24:17.153Z,5.40
2023-03-06T13:26:43.745Z,5.40
2023-03-06T13:29:29.190Z,5.40
2023-03-06T13:31:57.971Z,5.30
2023-03-06T13:34:36.663Z,5.20
2023-03-06T13:37:18.625Z,5.20
2023-03-06T13:40:00.512Z,5.20
2023-03-06T13:42:42.496Z,5.20
2023-03-06T13:45:18.215Z,5.10
2023-03-06T13:48:14.161Z,5.00
2023-03-06T13:50:37.587Z,4.90
2023-03-06T13:53:16.476Z,4.90
2023-03-06T13:55:43.039Z,4.80
2023-03-06T13:58:23.004Z,4.80
2023-03-06T14:00:55.823Z,4.80
2023-03-06T14:03:28.441Z,4.80
2023-03-06T14:05:55.288Z,4.70
2023-03-06T14:08:27.170Z,4.80
2023-03-06T14:11:03.103Z,4.80
2023-03-06T14:13:47.149Z,4.80
2023-03-06T14:16:19.303Z,4.80
2023-03-06T14:18:50.627Z,4.90
2023-03-06T14:21:43.615Z,4.90
2023-03-06T14:24:14.729Z,5.00
2023-03-06T14:26:43.036Z,4.90
2023-03-06T14:29:23.902Z,4.90
2023-03-06T14:31:55.171Z,4.80
2023-03-06T14:34:29.239Z,4.80
2023-03-06T14:36:57.999Z,4.70
2023-03-06T14:39:29.600Z,4.70
2023-03-06T14:42:05.530Z,4.60
2023-03-06T14:44:32.191Z,4.60
2023-03-06T14:47:14.665Z,4.50
2023-03-06T14:49:41.308Z,4.40
2023-03-06T14:52:17.442Z,4.40
2023-03-06T14:54:44.680Z,4.30
2023-03-06T14:57:18.009Z,4.30
2023-03-06T14:59:44.616Z,4.30
2023-03-06T15:02:15.730Z,4.20
2023-03-06T15:04:44.890Z,4.10
2023-03-06T15:07:14.626Z,4.10
2023-03-06T15:09:44.526Z,5.60
2023-03-06T15:12:20.243Z,4.00
2023-03-06T15:14:57.186Z,3.80
2023-03-06T15:17:25.063Z,3.60
2023-03-06T15:19:54.548Z,3.60
2023-03-06T15:22:37.916Z,3.50
2023-03-06T15:25:08.675Z,3.40
2023-03-06T15:27:35.328Z,3.40
2023-03-06T15:30:20.382Z,3.40
2023-03-06T15:32:47.103Z,3.40
2023-03-06T15:35:29.094Z,3.30
2023-03-06T15:37:56.710Z,3.30
2023-03-06T15:40:24.073Z,3.30
2023-03-06T15:42:50.806Z,3.30
2023-03-06T15:45:19.489Z,3.30
2023-03-06T15:47:47.902Z,3.30
2023-03-06T15:50:19.019Z,3.30
2023-03-06T15:52:46.234Z,3.40
2023-03-06T15:55:13.472Z,3.40
2023-03-06T15:57:51.601Z,3.30
2023-03-06T16:00:27.598Z,3.30
2023-03-06T16:02:55.233Z,3.30
2023-03-06T16:05:22.208Z,3.40
2023-03-06T16:07:48.877Z,3.40
2023-03-06T16:10:19.891Z,3.30
2023-03-06T16:13:06.861Z,3.30
2023-03-06T16:15:36.171Z,3.30
2023-03-06T16:18:02.840Z,3.20
2023-03-06T16:20:29.561Z,3.20
2023-03-06T16:22:56.355Z,3.10
2023-03-06T16:25:23.882Z,3.10
2023-03-06T16:27:56.772Z,3.10
2023-03-06T16:30:26.462Z,3.10
2023-03-06T16:32:53.055Z,3.10
2023-03-06T16:35:19.715Z,3.10
2023-03-06T16:37:46.967Z,3.00
2023-03-06T16:40:26.972Z,3.00
2023-03-06T16:42:55.122Z,3.00
2023-03-06T16:45:22.574Z,3.10
2023-03-06T16:47:49.383Z,5.60
2023-03-06T16:50:16.009Z,2.90
2023-03-06T16:52:42.661Z,2.90
2023-03-06T16:55:09.556Z,2.90
2023-03-06T16:57:36.171Z,2.80
2023-03-06T17:00:06.618Z,2.80
2023-03-06T17:02:33.363Z,2.80
2023-03-06T17:05:00.106Z,2.80
2023-03-06T17:07:26.715Z,3.60
2023-03-06T17:09:53.311Z,2.70
2023-03-06T17:12:19.940Z,2.70
2023-03-06T17:14:46.535Z,2.70
2023-03-06T17:17:13.189Z,2.70
2023-03-06T17:19:39.767Z,2.70
2023-03-06T17:22:06.355Z,2.70
2023-03-06T17:24:32.979Z,2.70
2023-03-06T17:26:59.637Z,2.60
2023-03-06T17:29:26.262Z,2.60
2023-03-06T17:31:52.808Z,2.60
2023-03-06T17:34:19.503Z,3.40
2023-03-06T17:36:46.082Z,2.60
2023-03-06T17:39:12.926Z,2.60
2023-03-06T17:41:39.516Z,2.60
2023-03-06T17:44:06.144Z,2.50
2023-03-06T17:46:32.800Z,0.90
2023-03-06T17:48:59.453Z,2.50
2023-03-06T17:51:26.240Z,2.50
2023-03-06T17:53:53.239Z,2.50
2023-03-06T17:56:19.890Z,2.50
2023-03-06T17:58:46.506Z,2.50
2023-03-06T18:01:14.427Z,2.50
2023-03-06T18:03:43.855Z,2.50
2023-03-06T18:06:10.550Z,2.50
2023-03-06T18:08:37.607Z,2.50
2023-03-06T18:11:05.612Z,2.50
2023-03-06T18:13:32.866Z,2.40
2023-03-06T18:16:01.414Z,2.40
2023-03-06T18:18:28.057Z,2.40
2023-03-06T18:20:54.701Z,2.40
2023-03-06T18:23:21.591Z,2.40
2023-03-06T18:25:48.332Z,2.40
2023-03-06T18:28:14.962Z,2.30
2023-03-06T18:30:42.335Z,2.40
2023-03-06T18:33:09.851Z,2.30
2023-03-06T18:35:36.820Z,2.30
2023-03-06T18:38:03.621Z,2.30
2023-03-06T18:40:30.368Z,2.30
2023-03-06T18:42:57.014Z,2.30
2023-03-06T18:45:23.610Z,2.30
2023-03-06T18:47:50.212Z,2.30
2023-03-06T18:50:17.599Z,2.30
2023-03-06T18:52:44.361Z,2.20
2023-03-06T18:55:11.083Z,2.20
2023-03-06T18:57:37.895Z,1.10
2023-03-06T19:02:38.932Z,2.10
2023-03-06T19:05:05.992Z,3.30
2023-03-06T19:07:32.813Z,2.00
2023-03-06T19:09:59.558Z,2.80
2023-03-06T19:12:26.206Z,4.40
2023-03-06T19:14:53.018Z,3.70
2023-03-06T19:17:19.790Z,4.10
2023-03-06T19:19:49.028Z,1.90
2023-03-06T19:22:15.657Z,4.50
2023-03-06T19:24:42.314Z,2.10
2023-03-06T19:27:08.941Z,2.10
2023-03-06T19:29:35.727Z,2.00
2023-03-06T19:32:02.530Z,1.90
2023-03-06T19:34:29.236Z,2.00
2023-03-06T19:36:55.874Z,2.00
2023-03-06T19:39:22.565Z,1.90
2023-03-06T19:41:49.328Z,1.90
2023-03-06T19:44:16.500Z,1.90
2023-03-06T19:46:43.679Z,1.90
2023-03-06T19:49:16.657Z,1.90
2023-03-06T19:51:43.628Z,1.90
2023-03-06T19:54:11.552Z,1.80
2023-03-06T19:56:38.187Z,1.90
2023-03-06T19:59:04.907Z,1.90
2023-03-06T20:01:31.617Z,1.90
2023-03-06T20:03:59.446Z,1.90
2023-03-06T20:06:31.173Z,1.90
2023-03-06T20:08:57.782Z,1.90
2023-03-06T20:11:25.766Z,1.80
2023-03-06T20:13:52.582Z,1.80
2023-03-06T20:16:19.354Z,1.80
2023-03-06T20:18:46.046Z,1.80
2023-03-06T20:21:12.689Z,1.80
2023-03-06T20:23:39.423Z,1.80
2023-03-06T20:26:08.985Z,2.10
2023-03-06T20:28:36.455Z,1.80
2023-03-06T20:31:11.075Z,1.80
2023-03-06T20:33:37.781Z,1.80
2023-03-06T20:36:04.781Z,1.80
2023-03-06T20:38:31.442Z,1.80
2023-03-06T20:40:59.710Z,1.80
2023-03-06T20:43:26.362Z,1.90
2023-03-06T20:45:56.873Z,1.90
2023-03-06T20:48:23.543Z,1.80
2023-03-06T20:51:13.142Z,1.90
2023-03-06T20:53:39.768Z,1.90
2023-03-06T20:56:06.570Z,1.90
2023-03-06T20:58:33.284Z,1.90
2023-03-06T21:01:02.234Z,1.90
2023-03-06T21:03:29.632Z,3.60
2023-03-06T21:05:56.269Z,1.90
2023-03-06T21:08:23.283Z,1.90
2023-03-06T21:10:49.964Z,1.90
2023-03-06T21:13:17.005Z,1.90
2023-03-06T21:15:44.041Z,1.90
2023-03-06T21:18:11.253Z,1.90
2023-03-06T21:20:38.678Z,1.80
2023-03-06T21:23:05.815Z,1.80
2023-03-06T21:25:32.570Z,1.80
2023-03-06T21:28:00.155Z,1.80
2023-03-06T21:30:27.903Z,1.80
2023-03-06T21:32:54.918Z,1.80
2023-03-06T21:35:21.912Z,1.80
2023-03-06T21:37:48.463Z,1.80
2023-03-06T21:40:15.128Z,1.80
2023-03-06T21:42:41.711Z,1.80
2023-03-06T21:45:08.635Z,3.80
2023-03-06T21:47:38.821Z,1.70
2023-03-06T21:50:06.141Z,0.30
2023-03-06T21:52:32.689Z,1.80
2023-03-06T21:54:59.348Z,1.80
2023-03-06T21:57:25.929Z,1.80
2023-03-06T21:59:52.589Z,1.70
2023-03-06T22:02:19.218Z,1.70
2023-03-06T22:04:50.141Z,1.70
2023-03-06T22:07:16.832Z,1.70
2023-03-06T22:09:43.414Z,1.70
2023-03-06T22:12:10.032Z,1.70
2023-03-06T22:14:36.629Z,1.70
2023-03-06T22:17:03.319Z,1.70
2023-03-06T22:19:29.886Z,1.70
2023-03-06T22:21:56.452Z,1.70
2023-03-06T22:24:23.042Z,1.70
2023-03-06T22:26:49.623Z,1.70
2023-03-06T22:29:16.162Z,1.70
2023-03-06T22:31:42.897Z,1.70
2023-03-06T22:34:09.544Z,1.70
2023-03-06T22:36:36.199Z,1.70
2023-03-06T22:39:03.043Z,1.70
2023-03-06T22:41:30.239Z,1.70
2023-03-06T22:43:57.975Z,1.70
2023-03-06T22:46:25.299Z,1.60
2023-03-06T22:48:52.006Z,3.00
2023-03-06T22:51:20.141Z,1.60
2023-03-06T22:53:47.594Z,1.60
2023-03-06T22:56:15.670Z,1.60
2023-03-06T22:58:44.634Z,1.60
2023-03-06T23:01:12.686Z,1.50
2023-03-06T23:03:40.475Z,1.50
2023-03-06T23:06:08.010Z,1.50
2023-03-06T23:08:34.756Z,1.50
2023-03-06T23:11:01.478Z,1.60
2023-03-06T23:13:28.121Z,1.50
2023-03-06T23:15:54.797Z,1.60
2023-03-06T23:18:21.406Z,1.50
2023-03-06T23:20:48.452Z,1.50
2023-03-06T23:23:15.072Z,1.50
2023-03-06T23:25:42.013Z,1.50
2023-03-06T23:28:08.586Z,1.40
2023-03-06T23:30:35.210Z,1.40
2023-03-06T23:33:01.939Z,1.40
2023-03-06T23:35:28.772Z,1.40
2023-03-06T23:37:55.425Z,1.30
2023-03-06T23:40:21.995Z,1.30
2023-03-06T23:42:48.527Z,1.20
2023-03-06T23:45:15.136Z,1.10
2023-03-06T23:47:42.123Z,1.00
2023-03-06T23:50:08.893Z,1.00
2023-03-06T23:52:35.532Z,1.00
2023-03-06T23:55:02.213Z,1.00
2023-03-06T23:57:29.376Z,0.90
2023-03-06T23:59:56.019Z,0.90
